Bookmark and Share
Track history (hours):
 

Roubini K

Last reported at 2014-Apr-23 09:07 UTC. Time now 2014-Apr-24 19:35 UTC.
Position N 55°54' E 016°25'.

Length 151 m; draft 5.1 m.

Type: Cargo ship. MMSI: 256978000.

NotesDate/timePositionNaut miles runAvg speedWind from/ knotsBaromVisibWave heightAir tempDewpointWater temp
2014-Apr-23 09:07N 55°54' E 016°25'40 8.6
2014-Apr-23 04:31N 55°35' E 015°24'9 8.9
2014-Apr-23 03:33N 55°31' E 015°10'9 9.1
2014-Apr-23 02:33N 55°27' E 014°55'9 9.0
2014-Apr-23 01:33N 55°24' E 014°40'9 9.2
2014-Apr-23 00:33N 55°17' E 014°29'12 9.3
2014-Apr-22 23:19N 55°08' E 014°16'7 9.1
2014-Apr-22 22:33N 55°09' E 014°04'9 8.7
2014-Apr-22 21:33N 55°10' E 013°49'9 8.9
2014-Apr-22 20:33N 55°11' E 013°34'10 9.6
2014-Apr-22 19:33N 55°13' E 013°17'10 9.5
2014-Apr-22 18:33N 55°14' E 013°00'10 9.5
2014-Apr-22 17:33N 55°17' E 012°44'8 7.8
2014-Apr-22 16:33N 55°24' E 012°39'1010.2
2014-Apr-22 15:33N 55°33' E 012°47'9 9.1
2014-Apr-22 14:33N 55°41' E 012°55'10 9.7
2014-Apr-22 13:33N 55°48' E 012°45'9 9.2
2014-Apr-22 12:33N 55°57' E 012°39'8 8.2
2014-Apr-22 11:33N 56°05' E 012°35'9 8.8
2014-Apr-22 10:33N 56°10' E 012°23'1110.8
2014-Apr-22 09:33N 56°16' E 012°07'1010.1
2014-Apr-22 08:33N 56°26' E 012°00'2110.1
2014-Apr-22 06:32N 56°46' E 011°52'1010.1
2014-Apr-22 05:30N 56°55' E 011°45'21 9.5
2014-Apr-22 03:18N 57°15' E 011°33'7 9.7
2014-Apr-22 02:33N 57°22' E 011°28'9 9.2
2014-Apr-22 01:33N 57°29' E 011°18'10 9.6
2014-Apr-22 00:33N 57°33' E 011°02'10 9.6
2014-Apr-21 23:33N 57°39' E 010°47'6 4.8
2014-Apr-21 22:15N 57°41' E 010°36'0 0.0
2014-Apr-21 20:30N 57°41' E 010°36'0 0.0
2014-Apr-21 19:33N 57°41' E 010°36'0 0.0
2014-Apr-21 18:33N 57°41' E 010°36'0 0.0
2014-Apr-21 16:12N 57°41' E 010°36'0 0.0
2014-Apr-21 15:33N 57°41' E 010°36'0 0.0
2014-Apr-21 14:33N 57°41' E 010°36'0 0.0
2014-Apr-21 13:18N 57°41' E 010°36'0 0.0
2014-Apr-21 12:33N 57°41' E 010°36'0 0.0
2014-Apr-21 11:33N 57°41' E 010°36'0 0.0
2014-Apr-21 10:33N 57°41' E 010°36'0 0.0
2014-Apr-21 09:27N 57°41' E 010°36'1 1.1
2014-Apr-21 08:33N 57°41' E 010°38'8 7.5
2014-Apr-21 07:33N 57°49' E 010°41'8 8.4
2014-Apr-21 06:33N 57°49' E 010°25'1010.3
2014-Apr-21 05:33N 57°46' E 010°07'62 9.9
2014-Apr-20 23:15N 57°14' E 008°27'51 9.9
2014-Apr-20 18:09N 56°32' E 007°34'194 9.7
2014-Apr-19 22:04N 53°50' E 004°28'78 9.1
2014-Apr-19 13:28N 52°44' E 003°18'73 8.9
2014-Apr-19 05:13N 51°39' E 002°26'710.7
2014-Apr-19 04:33N 51°33' E 002°19'1110.8
2014-Apr-19 03:33N 51°25' E 002°07'1110.3
2014-Apr-19 02:32N 51°15' E 002°05'1111.2
2014-Apr-19 01:33N 51°08' E 001°51'7 5.2
2014-Apr-19 00:09N 51°02' E 001°58'7 9.4
2014-Apr-18 23:25N 51°03' E 002°09'8 8.7
2014-Apr-18 22:33N 51°03' E 002°21'1 0.6
2014-Apr-18 21:33N 51°03' E 002°20'2 1.9
2014-Apr-18 20:31N 51°03' E 002°17'0 0.0
2014-Apr-18 19:31N 51°03' E 002°17'0 0.0
2014-Apr-18 18:31N 51°03' E 002°17'0 0.0
2014-Apr-18 17:31N 51°03' E 002°17'0 0.0
2014-Apr-18 16:31N 51°03' E 002°17'0 0.0
2014-Apr-18 15:31N 51°03' E 002°17'0 0.0
2014-Apr-18 14:31N 51°03' E 002°17'0 0.0
2014-Apr-18 13:31N 51°03' E 002°17'0 0.0
2014-Apr-18 12:31N 51°03' E 002°17'0 0.0
2014-Apr-18 11:31N 51°03' E 002°17'0 0.0
2014-Apr-18 10:31N 51°03' E 002°17'0 0.0
2014-Apr-18 09:31N 51°03' E 002°17'0 0.0
2014-Apr-18 08:32N 51°03' E 002°17'0 0.0
2014-Apr-18 07:31N 51°03' E 002°17'0 0.0
2014-Apr-18 06:31N 51°03' E 002°17'0 0.0
2014-Apr-18 05:31N 51°03' E 002°17'0 0.0
2014-Apr-18 04:31N 51°03' E 002°17'0 0.0
2014-Apr-18 03:31N 51°03' E 002°17'0 0.0
2014-Apr-18 02:31N 51°03' E 002°17'0 0.0
2014-Apr-18 01:31N 51°03' E 002°17'0 0.0
2014-Apr-18 00:31N 51°03' E 002°17'0 0.0
2014-Apr-17 23:31N 51°03' E 002°17'0 0.0
2014-Apr-17 22:31N 51°03' E 002°17'0 0.0
2014-Apr-17 21:31N 51°03' E 002°17'0 0.0
2014-Apr-17 20:31N 51°03' E 002°17'0 0.0
2014-Apr-17 19:31N 51°03' E 002°17'0 0.0
2014-Apr-17 18:31N 51°03' E 002°17'0 0.0
2014-Apr-17 17:31N 51°03' E 002°17'0 0.0
2014-Apr-17 16:31N 51°03' E 002°17'0 0.0
2014-Apr-17 15:31N 51°03' E 002°17'0 0.0
2014-Apr-17 14:31N 51°03' E 002°17'0 0.0
2014-Apr-17 13:32N 51°03' E 002°17'0 0.0
2014-Apr-17 12:28N 51°03' E 002°17'0 0.0
2014-Apr-17 11:31N 51°03' E 002°17'0 0.0
2014-Apr-17 09:31N 51°03' E 002°17'0 0.0
2014-Apr-17 08:28N 51°03' E 002°17'0 0.0
2014-Apr-17 07:31N 51°03' E 002°17'0 0.0
2014-Apr-17 06:25N 51°03' E 002°17'0 0.0
2014-Apr-17 05:25N 51°03' E 002°17'0 0.0
2014-Apr-17 04:31N 51°03' E 002°17'0 0.0
2014-Apr-17 03:31N 51°03' E 002°17'0 0.0
2014-Apr-17 02:31N 51°03' E 002°17'0 0.0
2014-Apr-17 01:25N 51°03' E 002°17'0 0.0
2014-Apr-17 00:31N 51°03' E 002°17'0 0.0
2014-Apr-16 23:31N 51°03' E 002°17'0 0.0
2014-Apr-16 22:28N 51°03' E 002°17'0 0.0
2014-Apr-16 21:31N 51°03' E 002°17'0 0.0
2014-Apr-16 20:31N 51°03' E 002°17'0 0.0
2014-Apr-16 19:31N 51°03' E 002°17'0 0.0
2014-Apr-16 18:25N 51°03' E 002°17'0 0.0
2014-Apr-16 17:28N 51°03' E 002°17'0 0.0
2014-Apr-16 16:31N 51°03' E 002°17'0 0.0
2014-Apr-16 15:31N 51°03' E 002°17'0 0.0
2014-Apr-16 14:32N 51°03' E 002°17'0 0.0
2014-Apr-16 13:29N 51°03' E 002°17'0 0.0
2014-Apr-16 12:32N 51°03' E 002°17'0 0.0
2014-Apr-16 11:32N 51°03' E 002°17'0 0.0
2014-Apr-16 10:32N 51°03' E 002°17'0 0.0
2014-Apr-16 09:32N 51°03' E 002°17'0 0.0
2014-Apr-16 08:30N 51°03' E 002°17'0 0.0
2014-Apr-16 07:32N 51°03' E 002°17'0 0.3
2014-Apr-16 06:34N 51°03' E 002°17'3 2.5
2014-Apr-16 05:32N 51°03' E 002°21'6 6.0
2014-Apr-16 04:33N 51°03' E 002°11'8 8.1
2014-Apr-16 03:33N 51°02' E 001°58'6 6.2
2014-Apr-16 02:30N 51°03' E 001°48'  

Dump ship's entire track history

sailing weather and tide predictions

Roubini K — 9HHC9 — position and weather